^^
Grace C. Lehan Memorial Weather Station Historical Data
Daily Summary for December 31, 2021 Units:  Metric    English   Both
Daily Weekly Monthly Yearly
  High: Low: Average:
Temperature: 8.7 °C 6.4 °C 7.2 °C
Dew Point: 8.3 °C 5.7 °C 6.7 °C
Humidity: 97% 95.2% 96%
Wind Speed: 0.6km/h 0km/h 0km/h
Wind Gust: 4.8km/h - -
Wind- - NE
Pressure: 1014.1 hPa 1012.1 hPa -
Precipitation: 0.25 mm    
 
 
Tabular Data for December 31, 2021
Time Temperature Dew Point Pressure Wind Wind Speed Wind Gust Humidity Rainfall Rate (Hourly) solar
00:04 6.4 °C 5.7 °C 1012.1 hPa Calm     95.2% 0.25 mm 0 W/m2
00:09 6.4 °C 5.8 °C 1012.1 hPa Calm     96% 0 mm 0 W/m2
00:14 6.5 °C 5.9 °C 1012.1 hPa Calm     96% 0 mm 0 W/m2
00:19 6.5 °C 5.9 °C 1012.4 hPa Calm     96% 0 mm 0 W/m2
00:24 6.6 °C 5.9 °C 1012.4 hPa Calm     96% 0 mm 0 W/m2
00:29 6.6 °C 5.9 °C 1012.4 hPa Calm     96% 0 mm 0 W/m2
00:34 6.6 °C 5.9 °C 1012.4 hPa Calm     96% 0 mm 0 W/m2
00:39 6.6 °C 6 °C 1012.4 hPa Calm     96% 0 mm 0 W/m2
00:44 6.6 °C 6 °C 1012.1 hPa Calm     96% 0 mm 0 W/m2
00:49 6.6 °C 6 °C 1012.1 hPa Calm     96% 0 mm 0 W/m2
00:54 6.6 °C 6 °C 1012.1 hPa Calm     96% 0 mm 0 W/m2
00:59 6.6 °C 6 °C 1012.1 hPa Calm     96% 0 mm 0 W/m2
01:04 6.6 °C 6 °C 1012.1 hPa Calm     96% 0 mm 0 W/m2
01:09 6.6 °C 6 °C 1012.1 hPa Calm     96% 0 mm 0 W/m2
01:14 6.6 °C 6 °C 1012.1 hPa Calm     96% 0 mm 0 W/m2
01:19 6.6 °C 6 °C 1012.1 hPa Calm     96% 0 mm 0 W/m2
01:24 6.6 °C 6 °C 1012.1 hPa Calm     96% 0 mm 0 W/m2
01:29 6.7 °C 6.1 °C 1012.1 hPa Calm     96% 0 mm 0 W/m2
01:34 6.7 °C 6.1 °C 1012.4 hPa Calm     96% 0 mm 0 W/m2
01:39 6.7 °C 6.1 °C 1012.4 hPa Calm     96% 0 mm 0 W/m2
01:44 6.7 °C 6.1 °C 1012.4 hPa Calm     96% 0 mm 0 W/m2
01:49 6.7 °C 6.1 °C 1012.4 hPa Calm     96% 0 mm 0 W/m2
01:54 6.7 °C 6.2 °C 1012.4 hPa Calm     96% 0 mm 0 W/m2
01:59 6.8 °C 6.2 °C 1012.4 hPa Calm   1.6 km/h 96% 0 mm 0 W/m2
02:04 6.8 °C 6.2 °C 1012.4 hPa Calm   1.6 km/h 96% 0 mm 0 W/m2
02:09 6.8 °C 6.2 °C 1012.8 hPa Calm     96% 0 mm 0 W/m2
02:14 6.8 °C 6.2 °C 1012.8 hPa Calm     96% 0 mm 0 W/m2
02:19 6.8 °C 6.2 °C 1012.8 hPa Calm     96% 0 mm 0 W/m2
02:24 6.8 °C 6.2 °C 1012.8 hPa Calm     96% 0 mm 0 W/m2
02:29 6.8 °C 6.2 °C 1012.4 hPa Calm     96% 0.25 mm 0 W/m2
02:34 6.8 °C 6.2 °C 1012.4 hPa Calm     96% 0.25 mm 0 W/m2
02:39 6.8 °C 6.2 °C 1012.4 hPa Calm     96% 0.25 mm 0 W/m2
02:44 6.8 °C 6.2 °C 1012.4 hPa Calm     96% 0.25 mm 0 W/m2
02:49 6.8 °C 6.2 °C 1012.4 hPa Calm     96% 0.25 mm 0 W/m2
02:54 6.8 °C 6.2 °C 1012.4 hPa Calm     96% 0.25 mm 0 W/m2
02:59 6.8 °C 6.2 °C 1012.4 hPa Calm     96% 0.25 mm 0 W/m2
03:04 6.8 °C 6.2 °C 1012.4 hPa Calm     96% 0.25 mm 0 W/m2
03:09 6.8 °C 6.2 °C 1012.4 hPa Calm     96% 0.25 mm 0 W/m2
03:14 6.8 °C 6.2 °C 1012.4 hPa Calm     96% 0.25 mm 0 W/m2
03:19 6.8 °C 6.3 °C 1012.4 hPa Calm     96% 0.25 mm 0 W/m2
03:24 6.9 °C 6.3 °C 1012.4 hPa Calm     96% 0.25 mm 0 W/m2
03:29 6.9 °C 6.3 °C 1012.4 hPa Calm     96% 0.25 mm 0 W/m2
03:34 6.9 °C 6.3 °C 1012.4 hPa Calm     96% 0.25 mm 0 W/m2
03:39 6.9 °C 6.3 °C 1012.1 hPa Calm     96% 0 mm 0 W/m2
03:44 6.9 °C 6.3 °C 1012.1 hPa Calm     96% 0 mm 0 W/m2
03:49 6.9 °C 6.3 °C 1012.1 hPa Calm     96% 0 mm 0 W/m2
03:54 6.9 °C 6.3 °C 1012.1 hPa Calm     96% 0 mm 0 W/m2
03:59 6.9 °C 6.3 °C 1012.1 hPa Calm     96% 0 mm 0 W/m2
04:00 6.9 °C 6.3 °C 1012.1 hPa Calm     96% 0 mm 0 W/m2
04:09 6.9 °C 6.3 °C 1012.1 hPa Calm     96% 0 mm 0 W/m2
04:14 6.9 °C 6.3 °C 1012.1 hPa Calm     96% 0 mm 0 W/m2
04:19 6.9 °C 6.3 °C 1012.1 hPa Calm     96% 0 mm 0 W/m2
04:24 6.9 °C 6.3 °C 1012.1 hPa Calm     96% 0 mm 0 W/m2
04:29 6.9 °C 6.3 °C 1012.1 hPa Calm     96% 0 mm 0 W/m2
04:34 6.9 °C 6.3 °C 1012.1 hPa Calm     96% 0 mm 0 W/m2
04:39 6.9 °C 6.3 °C 1012.1 hPa Calm     96% 0 mm 0 W/m2
04:44 6.9 °C 6.3 °C 1012.1 hPa Calm     96% 0 mm 0 W/m2
04:49 6.8 °C 6.3 °C 1012.1 hPa Calm     96% 0 mm 0 W/m2
04:54 6.8 °C 6.2 °C 1012.1 hPa Calm     96% 0 mm 0 W/m2
04:59 6.8 °C 6.2 °C 1012.1 hPa Calm     96% 0 mm 0 W/m2
05:04 6.8 °C 6.2 °C 1012.1 hPa Calm     96% 0 mm 0 W/m2
05:09 6.7 °C 6.2 °C 1012.1 hPa Calm     96% 0 mm 0 W/m2
05:14 6.7 °C 6.1 °C 1012.4 hPa Calm     96% 0 mm 0 W/m2
05:19 6.6 °C 6 °C 1012.4 hPa Calm     96% 0 mm 0 W/m2
05:24 6.5 °C 5.9 °C 1012.4 hPa Calm     96% 0 mm 0 W/m2
05:29 6.4 °C 5.9 °C 1012.4 hPa Calm     96% 0 mm 0 W/m2
05:34 6.4 °C 5.8 °C 1012.4 hPa Calm     96% 0 mm 0 W/m2
05:39 6.4 °C 5.9 °C 1012.4 hPa Calm     96% 0 mm 0 W/m2
05:44 6.6 °C 6.1 °C 1012.4 hPa Calm     96.3% 0 mm 0 W/m2
05:49 6.7 °C 6.3 °C 1012.4 hPa Calm     97% 0 mm 0 W/m2
05:54 6.8 °C 6.3 °C 1012.4 hPa Calm     97% 0 mm 0 W/m2
05:59 6.7 °C 6.3 °C 1012.4 hPa Calm     97% 0 mm 0 W/m2
06:04 6.7 °C 6.2 °C 1012.4 hPa Calm     97% 0 mm 0 W/m2
06:09 6.7 °C 6.1 °C 1012.4 hPa Calm     96.3% 0 mm 0 W/m2
06:14 6.6 °C 6 °C 1012.4 hPa Calm     96% 0 mm 0 W/m2
06:19 6.6 °C 6 °C 1012.4 hPa Calm     96% 0 mm 0 W/m2
06:24 6.6 °C 5.9 °C 1012.4 hPa Calm     96% 0 mm 0 W/m2
06:29 6.6 °C 5.9 °C 1012.8 hPa Calm     96% 0 mm 0 W/m2
06:34 6.6 °C 5.9 °C 1012.8 hPa Calm     96% 0 mm 0 W/m2
06:39 6.6 °C 6.1 °C 1012.8 hPa Calm     96.4% 0 mm 0 W/m2
06:44 6.6 °C 6.2 °C 1012.4 hPa Calm     97% 0 mm 0 W/m2
06:49 6.7 °C 6.2 °C 1012.4 hPa Calm     96.8% 0 mm 0 W/m2
06:54 6.7 °C 6.2 °C 1012.8 hPa Calm     96.8% 0 mm 0 W/m2
06:59 6.7 °C 6.3 °C 1012.8 hPa Calm     97% 0 mm 0 W/m2
07:04 6.8 °C 6.3 °C 1012.8 hPa Calm     97% 0 mm 0 W/m2
07:09 6.8 °C 6.4 °C 1013.1 hPa Calm     97% 0 mm 0 W/m2
07:14 6.9 °C 6.4 °C 1013.1 hPa Calm     97% 0 mm 0 W/m2
07:19 6.9 °C 6.5 °C 1013.1 hPa Calm     97% 0 mm 0 W/m2
07:24 7 °C 6.6 °C 1013.1 hPa Calm     97% 0 mm 0 W/m2
07:29 7.1 °C 6.6 °C 1013.1 hPa NE 0.3 km/h 4.8 km/h 97% 0 mm 7 W/m2
07:34 7.1 °C 6.6 °C 1013.1 hPa Calm   4.8 km/h 97% 0 mm 9 W/m2
07:39 7.1 °C 6.7 °C 1013.1 hPa Calm     97% 0 mm 16 W/m2
07:44 7.2 °C 6.7 °C 1013.1 hPa Calm     97% 0 mm 23 W/m2
07:49 7.3 °C 6.8 °C 1013.1 hPa Calm     97% 0 mm 26 W/m2
07:54 7.3 °C 6.9 °C 1013.1 hPa Calm     97% 0 mm 30 W/m2
07:59 7.4 °C 6.9 °C 1013.1 hPa Calm     97% 0 mm 28 W/m2
08:00 7.4 °C 6.9 °C 1013.1 hPa Calm     97% 0 mm 26 W/m2
08:09 7.4 °C 6.9 °C 1013.1 hPa Calm     97% 0 mm 33 W/m2
08:14 7.4 °C 6.9 °C 1013.1 hPa Calm     97% 0 mm 37 W/m2
08:19 7.4 °C 7 °C 1013.4 hPa Calm     97% 0 mm 30 W/m2
08:24 7.5 °C 7.1 °C 1013.4 hPa Calm     97% 0 mm 28 W/m2
08:29 7.5 °C 7.1 °C 1013.4 hPa Calm     97% 0 mm 33 W/m2
08:34 7.6 °C 7.1 °C 1013.4 hPa Calm     97% 0 mm 33 W/m2
08:39 7.7 °C 7.2 °C 1013.4 hPa Calm     97% 0 mm 42 W/m2
08:44 7.7 °C 7.3 °C 1013.4 hPa Calm     97% 0 mm 42 W/m2
08:49 7.8 °C 7.3 °C 1013.4 hPa Calm     97% 0 mm 37 W/m2
08:54 7.8 °C 7.4 °C 1013.4 hPa Calm     97% 0 mm 42 W/m2
08:59 7.9 °C 7.5 °C 1013.4 hPa Calm     97% 0 mm 46 W/m2
09:04 8 °C 7.6 °C 1013.8 hPa Calm     97% 0 mm 46 W/m2
09:09 8.1 °C 7.6 °C 1013.8 hPa Calm     97% 0 mm 56 W/m2
09:14 8.1 °C 7.6 °C 1013.8 hPa Calm     97% 0 mm 60 W/m2
09:19 8.2 °C 7.7 °C 1013.8 hPa Calm     97% 0 mm 47 W/m2
09:24 8.2 °C 7.7 °C 1013.8 hPa Calm     97% 0 mm 51 W/m2
09:29 8.2 °C 7.8 °C 1013.8 hPa Calm     97% 0 mm 53 W/m2
09:34 8.3 °C 7.8 °C 1013.8 hPa Calm     97% 0 mm 44 W/m2
09:39 8.3 °C 7.8 °C 1013.8 hPa Calm     97% 0 mm 53 W/m2
09:44 8.3 °C 7.9 °C 1013.8 hPa Calm     97% 0 mm 56 W/m2
09:49 8.4 °C 7.9 °C 1014.1 hPa Calm     97% 0 mm 63 W/m2
09:54 8.4 °C 8 °C 1014.1 hPa Calm     97% 0 mm 62 W/m2
09:59 8.5 °C 8.1 °C 1014.1 hPa Calm     97% 0 mm 62 W/m2
10:04 8.6 °C 8.1 °C 1014.1 hPa Calm     97% 0 mm 69 W/m2
10:09 8.6 °C 8.2 °C 1014.1 hPa Calm     97% 0 mm 67 W/m2
10:14 8.7 °C 8.2 °C 1014.1 hPa Calm     97% 0 mm 72 W/m2
10:19 8.7 °C 8.2 °C 1014.1 hPa Calm     97% 0 mm 86 W/m2
10:24 8.7 °C 8.2 °C 1014.1 hPa Calm     97% 0 mm 86 W/m2
10:29 8.7 °C 8.3 °C 1014.1 hPa Calm     97% 0 mm 95 W/m2
10:34 8.6 °C 8.2 °C 1013.8 hPa Calm     97% 0 mm 98 W/m2
10:39 8.6 °C 8.1 °C 1013.8 hPa Calm     97% 0 mm 95 W/m2
10:44 8.6 °C 8.1 °C 1013.8 hPa Calm     97% 0 mm 104 W/m2
10:49 8.5 °C 8.1 °C 1013.4 hPa Calm     97% 0 mm 104 W/m2
10:54 8.5 °C 8.1 °C 1013.4 hPa Calm     97% 0 mm 91 W/m2
10:59 8.4 °C 8 °C 1013.4 hPa Calm     97% 0 mm 81 W/m2
11:04 8.4 °C 8 °C 1013.4 hPa Calm     97% 0 mm 83 W/m2
11:09 8.4 °C 8 °C 1013.1 hPa Calm     97% 0 mm 95 W/m2
11:14 8.4 °C 8 °C 1013.1 hPa Calm     97% 0 mm 97 W/m2
11:19 8.4 °C 8 °C 1013.1 hPa NE 0.6 km/h 4.8 km/h 97% 0 mm 104 W/m2
11:24 8.4 °C 8 °C 1012.8 hPa Calm   4.8 km/h 97% 0 mm 104 W/m2
11:29 8.6 °C 7.9 °C 1012.8 hPa Calm   4.8 km/h 96% 0 mm 98 W/m2
11:33 8.6 °C 8 °C 1012.8 hPa Calm   4.8 km/h 96% 0 mm 102 W/m2
Hartford County Weather
Compliments of Weather Underground - 2 mb